Nearby METAR Reports

 

KPVU - Provo Muni, Utah, USA
Distance from station: S 9mi, 15km
Updated: Mon, 02-Aug-2021 10:56am MDT
Mostly cloudy
Mostly cloudy
 Wind from NNW
Wind: NNW 13 mph , 20 km/h
Temperature: 70°F , 21°C
Dew Point: 61°F , 16°C
Humidity: 73%
Barometer: 30.34 inHg , 1027.4 hPa
Clouds: Mostly cloudy
Visibility: 10 miles , 16 km
Cloud details: Mostly cloudy 7500 ft
Mostly cloudy 12000 ft
2021/08/02 16:56 KPVU 021656Z 34011KT 10SM BKN075 BKN120 21/16 A3034 RMK AO2 SLP231 T02110161
K36U - Heber/Russ Mcdon, Utah, USA
Distance from station: ENE 17mi, 27km
Updated: Wed, 11-Oct-2017 6:50pm MDT
NOT Current
Clear
Clear
 Wind from SSW
Wind: SSW 10 mph , 17 km/h, Gust: 18 mph , 30 km/h
Temperature: 63°F , 17°C
Dew Point: 16°F , -9°C
Humidity: 16%
Barometer: 29.87 inHg , 1011.5 hPa
Clouds: Clear
Visibility: 10 miles , 16 km
2017/10/12 00:50 K36U 120050Z AUTO 21009G16KT 10SM CLR 17/M09 A2987 RMK AO2
 
KSLC - Salt Lake City, Utah, USA
Distance from station: NNW 33mi, 53km
Updated: Mon, 02-Aug-2021 10:54am MDT
Light rain, Mostly cloudy
Light rain, Mostly cloudy
 Wind from S
Wind: S 6 mph , 9 km/h
Temperature: 66°F , 19°C
Dew Point: 63°F , 17°C
Humidity: 88%
Barometer: 30.31 inHg , 1026.4 hPa
Summary: Light rain
Clouds: Mostly cloudy
Visibility: 10 miles , 16 km
Cloud details: Few Clouds 2500 ft
Partly cloudy 7000 ft
Mostly cloudy 10000 ft
Mostly cloudy 20000 ft
2021/08/02 16:54 KSLC 021654Z 19005KT 10SM -RA FEW025 SCT070 BKN100 BKN200 19/17 A3031 RMK AO2 SLP222 P0009 T01940167